Time;durP1;ratioP1;P1;durP2;ratioP2;P2;SDS_P1;SDS_P2;PMS_P1;PMS_P2;Temp;Humidity;BMP_temperature;BMP_pressure;BME280_temperature;BME280_humidity;BME280_pressure;Samples;Min_cycle;Max_cycle;Signal;HPM_P1;HPM_P2
2024/03/16 00:01:54;;;;;;;19.20;17.15;;;;;;;;;;10248034;28;20073;-61
2024/03/16 00:06:53;;;;;;;18.17;15.63;;;;;;;;;;10230216;28;20076;-62
2024/03/16 00:11:51;;;;;;;19.85;16.98;;;;;;;;;;10259214;28;20095;-62
2024/03/16 00:16:50;;;;;;;19.05;17.08;;;;;;;;;;10275155;28;20076;-62
2024/03/16 00:21:48;;;;;;;24.00;20.40;;;;;;;;;;10273535;28;20514;-62
2024/03/16 00:26:47;;;;;;;22.17;18.73;;;;;;;;;;10270722;28;20087;-62
2024/03/16 00:31:48;;;;;;;21.45;18.23;;;;;;;;;;10277321;28;20478;-62
2024/03/16 00:36:47;;;;;;;20.98;16.98;;;;;;;;;;10276636;28;20072;-62
2024/03/16 00:41:46;;;;;;;22.35;16.45;;;;;;;;;;10274786;28;20516;-62
2024/03/16 00:46:44;;;;;;;19.77;17.67;;;;;;;;;;10275581;28;20068;-62
2024/03/16 00:51:42;;;;;;;22.50;18.20;;;;;;;;;;10273983;28;20065;-62
2024/03/16 00:56:43;;;;;;;22.42;19.63;;;;;;;;;;10274546;28;20073;-62
2024/03/16 01:01:41;;;;;;;27.65;19.02;;;;;;;;;;10273396;28;20511;-62
2024/03/16 01:06:40;;;;;;;21.63;18.13;;;;;;;;;;10273889;28;20146;-62
2024/03/16 01:11:38;;;;;;;20.38;17.58;;;;;;;;;;10280884;28;20091;-62
2024/03/16 01:16:36;;;;;;;20.00;17.88;;;;;;;;;;10287832;28;20068;-62
2024/03/16 01:21:35;;;;;;;20.45;18.08;;;;;;;;;;10288078;28;20076;-61
2024/03/16 01:26:33;;;;;;;20.65;16.63;;;;;;;;;;10287670;28;20084;-62
2024/03/16 01:31:32;;;;;;;19.10;17.13;;;;;;;;;;10282513;28;20103;-62
2024/03/16 01:36:30;;;;;;;19.50;17.48;;;;;;;;;;10281936;28;20065;-62
2024/03/16 01:41:29;;;;;;;21.15;16.58;;;;;;;;;;10283386;28;20072;-62
2024/03/16 01:46:27;;;;;;;18.25;15.95;;;;;;;;;;10280222;28;20482;-62
2024/03/16 01:51:25;;;;;;;19.38;16.60;;;;;;;;;;10281327;28;20060;-62
2024/03/16 01:56:24;;;;;;;17.63;15.73;;;;;;;;;;10280526;28;20076;-62
2024/03/16 02:01:23;;;;;;;18.83;16.40;;;;;;;;;;10278955;28;20068;-62
2024/03/16 02:06:22;;;;;;;19.55;17.33;;;;;;;;;;10279271;28;20084;-62
2024/03/16 02:11:20;;;;;;;19.33;16.50;;;;;;;;;;10269836;28;20081;-62
2024/03/16 02:16:19;;;;;;;17.70;15.80;;;;;;;;;;10249732;28;20056;-62
2024/03/16 02:21:17;;;;;;;18.42;16.52;;;;;;;;;;10249782;28;20528;-62
2024/03/16 02:26:16;;;;;;;32.15;22.90;;;;;;;;;;10232545;28;20085;-62
2024/03/16 02:31:15;;;;;;;29.15;21.30;;;;;;;;;;10253828;28;20067;-61
2024/03/16 02:36:14;;;;;;;22.80;18.65;;;;;;;;;;10251112;28;20558;-62
2024/03/16 02:41:12;;;;;;;19.63;17.55;;;;;;;;;;10245021;28;20529;-62
2024/03/16 02:46:10;;;;;;;19.95;16.17;;;;;;;;;;10243829;28;20080;-62
2024/03/16 02:51:09;;;;;;;17.50;15.70;;;;;;;;;;10249173;28;20072;-62
2024/03/16 02:56:08;;;;;;;17.70;15.75;;;;;;;;;;10249112;28;20069;-62
2024/03/16 03:01:07;;;;;;;18.67;16.02;;;;;;;;;;10248659;28;20076;-62
2024/03/16 03:06:05;;;;;;;17.70;15.55;;;;;;;;;;10246974;28;20068;-61
2024/03/16 03:11:04;;;;;;;19.98;17.52;;;;;;;;;;10246558;28;20084;-61
2024/03/16 03:16:03;;;;;;;24.70;16.73;;;;;;;;;;10248581;28;20510;-61
2024/03/16 03:21:02;;;;;;;19.23;17.02;;;;;;;;;;10247592;28;20075;-61
2024/03/16 03:26:00;;;;;;;18.15;16.10;;;;;;;;;;10248357;28;20072;-62
2024/03/16 03:30:58;;;;;;;18.20;16.10;;;;;;;;;;10244777;28;20431;-62
2024/03/16 03:35:57;;;;;;;20.55;16.50;;;;;;;;;;10231524;28;20076;-62
2024/03/16 03:40:56;;;;;;;18.52;15.65;;;;;;;;;;10249690;28;20069;-61
2024/03/16 03:45:54;;;;;;;18.38;15.95;;;;;;;;;;10245591;28;20087;-62
2024/03/16 03:50:53;;;;;;;18.27;15.43;;;;;;;;;;10245356;28;20063;-62
2024/03/16 03:55:51;;;;;;;22.35;17.80;;;;;;;;;;10242302;28;20069;-62
2024/03/16 04:00:49;;;;;;;20.23;17.45;;;;;;;;;;10246085;28;20061;-62
2024/03/16 04:05:51;;;;;;;21.83;17.15;;;;;;;;;;10242150;28;20529;-62
2024/03/16 04:10:50;;;;;;;22.88;18.25;;;;;;;;;;10238143;28;20112;-62
2024/03/16 04:15:49;;;;;;;23.90;19.23;;;;;;;;;;10246025;28;20072;-62
2024/03/16 04:20:47;;;;;;;19.80;16.10;;;;;;;;;;10246115;28;20073;-62
2024/03/16 04:25:46;;;;;;;20.55;17.05;;;;;;;;;;10245717;28;20665;-62
2024/03/16 04:30:45;;;;;;;20.13;16.85;;;;;;;;;;10245064;28;20061;-62
2024/03/16 04:35:45;;;;;;;18.92;15.95;;;;;;;;;;10246587;28;20076;-62
2024/03/16 04:40:43;;;;;;;17.55;15.50;;;;;;;;;;10245222;28;20076;-62
2024/03/16 04:45:42;;;;;;;18.15;16.00;;;;;;;;;;10248207;28;20498;-62
2024/03/16 04:50:40;;;;;;;18.88;16.75;;;;;;;;;;10252718;28;20076;-62
2024/03/16 04:55:40;;;;;;;20.00;16.48;;;;;;;;;;10235197;28;20095;-62
2024/03/16 05:00:38;;;;;;;18.10;16.13;;;;;;;;;;10248519;28;20257;-61
2024/03/16 05:05:37;;;;;;;21.30;18.25;;;;;;;;;;10246127;28;20131;-62
2024/03/16 05:10:35;;;;;;;21.10;16.95;;;;;;;;;;10241882;28;20100;-62
2024/03/16 05:15:34;;;;;;;22.10;18.23;;;;;;;;;;10243328;28;20473;-62
2024/03/16 05:20:32;;;;;;;26.25;21.38;;;;;;;;;;10251836;28;20069;-61
2024/03/16 05:25:31;;;;;;;91.43;57.25;;;;;;;;;;10251673;28;20072;-62
2024/03/16 05:30:31;;;;;;;32.95;24.88;;;;;;;;;;10251941;28;20411;-63
2024/03/16 05:35:30;;;;;;;25.95;20.63;;;;;;;;;;10251809;28;20073;-63
2024/03/16 05:40:28;;;;;;;31.13;22.45;;;;;;;;;;10252534;28;20087;-60
2024/03/16 05:45:27;;;;;;;34.40;22.30;;;;;;;;;;10251415;28;20084;-63
2024/03/16 05:50:25;;;;;;;30.58;23.83;;;;;;;;;;10252407;28;20076;-61
2024/03/16 05:55:24;;;;;;;28.73;19.88;;;;;;;;;;10251070;28;20065;-63
2024/03/16 06:00:22;;;;;;;33.08;25.83;;;;;;;;;;10254303;28;20069;-62
2024/03/16 06:05:21;;;;;;;35.00;26.02;;;;;;;;;;10252252;28;20084;-61
2024/03/16 06:10:20;;;;;;;52.70;41.83;;;;;;;;;;10248900;28;20085;-62
2024/03/16 06:15:18;;;;;;;29.25;24.83;;;;;;;;;;10251525;28;20537;-62
2024/03/16 06:20:17;;;;;;;33.13;24.45;;;;;;;;;;10244934;28;20132;-62
2024/03/16 06:25:20;;;;;;;32.25;25.92;;;;;;;;;;10243650;28;20485;-63
2024/03/16 06:30:19;;;;;;;36.40;27.13;;;;;;;;;;10251614;28;20523;-61
2024/03/16 06:35:18;;;;;;;29.77;23.73;;;;;;;;;;10249301;28;20061;-63
2024/03/16 06:40:16;;;;;;;30.83;23.05;;;;;;;;;;10249949;28;20068;-63
2024/03/16 06:45:15;;;;;;;32.90;25.52;;;;;;;;;;10247077;28;20800;-63
2024/03/16 06:50:14;;;;;;;27.50;23.13;;;;;;;;;;10247680;28;20084;-62
2024/03/16 06:55:13;;;;;;;19.92;17.10;;;;;;;;;;10249107;28;20556;-63
2024/03/16 07:00:12;;;;;;;47.08;31.23;;;;;;;;;;10248001;28;20076;-62
2024/03/16 07:05:11;;;;;;;25.85;20.95;;;;;;;;;;10248445;28;20089;-63
2024/03/16 07:10:09;;;;;;;24.20;19.58;;;;;;;;;;10248544;28;20466;-63
2024/03/16 07:15:09;;;;;;;24.65;19.30;;;;;;;;;;10247764;28;20091;-62
2024/03/16 07:20:10;;;;;;;20.45;18.25;;;;;;;;;;10246201;28;20434;-63
2024/03/16 07:25:09;;;;;;;22.48;19.00;;;;;;;;;;10247197;28;20077;-63
2024/03/16 07:30:08;;;;;;;21.40;18.98;;;;;;;;;;10246963;28;20072;-62
2024/03/16 07:35:07;;;;;;;21.38;18.80;;;;;;;;;;10242115;28;20522;-62
2024/03/16 07:40:06;;;;;;;21.95;17.98;;;;;;;;;;10243799;28;20519;-62
2024/03/16 07:45:05;;;;;;;30.45;18.75;;;;;;;;;;10245302;28;20110;-63
2024/03/16 07:50:05;;;;;;;21.95;17.88;;;;;;;;;;10247178;28;20073;-62
2024/03/16 07:55:06;;;;;;;22.63;18.45;;;;;;;;;;10248546;28;20077;-63
2024/03/16 08:00:10;;;;;;;22.35;18.88;;;;;;;;;;10245539;28;20466;-63
2024/03/16 08:05:11;;;;;;;22.77;18.52;;;;;;;;;;10245855;28;20103;-63
2024/03/16 08:10:10;;;;;;;21.35;18.15;;;;;;;;;;10233836;28;20471;-62
2024/03/16 08:15:09;;;;;;;25.50;20.27;;;;;;;;;;10274845;28;20068;-62
2024/03/16 08:20:10;;;;;;;22.63;16.63;;;;;;;;;;10276181;28;20076;-62
2024/03/16 08:25:12;;;;;;;26.38;18.50;;;;;;;;;;10280130;28;20081;-62
2024/03/16 08:30:11;;;;;;;24.83;19.75;;;;;;;;;;10272718;28;20083;-61
2024/03/16 08:35:09;;;;;;;31.80;27.98;;;;;;;;;;10305763;28;20061;-61
2024/03/16 08:40:11;;;;;;;32.03;24.83;;;;;;;;;;10276536;28;20072;-61
2024/03/16 08:45:11;;;;;;;25.98;19.60;;;;;;;;;;10277249;28;20079;-61
2024/03/16 08:50:09;;;;;;;28.17;22.13;;;;;;;;;;10277957;28;20071;-61
2024/03/16 08:55:12;;;;;;;29.55;21.80;;;;;;;;;;10277086;28;20524;-61
2024/03/16 09:00:14;;;;;;;19.70;17.55;;;;;;;;;;10276134;28;20077;-64
2024/03/16 09:05:12;;;;;;;21.13;18.58;;;;;;;;;;10277913;28;20068;-61
2024/03/16 09:10:11;;;;;;;20.33;18.02;;;;;;;;;;10272672;28;20522;-61
2024/03/16 09:15:11;;;;;;;19.98;17.98;;;;;;;;;;10276666;28;20088;-61
2024/03/16 09:20:10;;;;;;;27.85;20.63;;;;;;;;;;10273429;28;20079;-61
2024/03/16 09:25:10;;;;;;;20.67;17.50;;;;;;;;;;10273899;28;20064;-61
2024/03/16 09:30:11;;;;;;;20.60;18.30;;;;;;;;;;10272432;28;20081;-61
2024/03/16 09:35:10;;;;;;;23.90;19.92;;;;;;;;;;10267730;28;20092;-61
2024/03/16 09:40:10;;;;;;;22.58;18.00;;;;;;;;;;10265261;28;20091;-61
2024/03/16 09:45:10;;;;;;;20.45;18.25;;;;;;;;;;10280442;28;20076;-61
2024/03/16 09:50:09;;;;;;;20.08;17.00;;;;;;;;;;10268752;28;20509;-61
2024/03/16 09:55:09;;;;;;;18.20;16.08;;;;;;;;;;10280451;28;20083;-61
2024/03/16 10:00:07;;;;;;;14.50;12.80;;;;;;;;;;10284238;28;20060;-61
2024/03/16 10:05:11;;;;;;;13.32;11.27;;;;;;;;;;10274565;28;20076;-60
2024/03/16 10:10:10;;;;;;;15.18;12.30;;;;;;;;;;10268445;28;20072;-61
2024/03/16 10:15:15;;;;;;;15.55;13.93;;;;;;;;;;10246321;28;20072;-61
2024/03/16 10:20:16;;;;;;;16.75;14.68;;;;;;;;;;10258525;28;20471;-63
2024/03/16 10:25:15;;;;;;;15.60;12.70;;;;;;;;;;10275492;28;20079;-62
2024/03/16 10:30:13;;;;;;;15.13;13.15;;;;;;;;;;10275054;28;20056;-61
2024/03/16 10:35:14;;;;;;;14.35;12.85;;;;;;;;;;10273761;28;20056;-62
2024/03/16 10:40:16;;;;;;;15.38;12.95;;;;;;;;;;10278836;28;20080;-61
2024/03/16 10:45:17;;;;;;;24.10;19.25;;;;;;;;;;10266880;28;20077;-63
2024/03/16 10:50:15;;;;;;;17.77;13.88;;;;;;;;;;10278108;28;20078;-62
2024/03/16 10:55:14;;;;;;;16.30;13.98;;;;;;;;;;10277798;28;20525;-62
2024/03/16 11:00:26;;;;;;;18.70;15.82;;;;;;;;;;10266604;28;20076;-61
2024/03/16 11:05:40;;;;;;;25.08;15.80;;;;;;;;;;10279827;28;20459;-62
2024/03/16 11:10:39;;;;;;;15.60;14.00;;;;;;;;;;10263222;28;20088;-62
2024/03/16 11:15:38;;;;;;;15.18;12.95;;;;;;;;;;10277090;28;20076;-62
2024/03/16 11:20:36;;;;;;;13.82;12.45;;;;;;;;;;10276411;28;20532;-62
2024/03/16 11:25:33;;;;;;;11.75;10.65;;;;;;;;;;10275481;28;20099;-62
2024/03/16 11:30:31;;;;;;;10.50;9.35;;;;;;;;;;10275865;28;20516;-61
2024/03/16 11:35:29;;;;;;;11.55;9.57;;;;;;;;;;10276316;28;20467;-62
2024/03/16 11:40:28;;;;;;;10.15;9.23;;;;;;;;;;10249854;28;20496;-62
2024/03/16 11:45:26;;;;;;;10.63;9.57;;;;;;;;;;10276060;28;20076;-61
2024/03/16 11:50:24;;;;;;;29.02;26.40;;;;;;;;;;10264594;28;20064;-62
2024/03/16 11:55:22;;;;;;;12.35;11.13;;;;;;;;;;10262361;28;20483;-62
2024/03/16 12:00:19;;;;;;;15.98;10.20;;;;;;;;;;10265590;28;20049;-62
2024/03/16 12:05:17;;;;;;;9.15;8.25;;;;;;;;;;10259466;28;20080;-63
2024/03/16 12:10:15;;;;;;;10.40;9.40;;;;;;;;;;10277133;28;20077;-62
2024/03/16 12:15:14;;;;;;;11.75;10.63;;;;;;;;;;10274246;28;20068;-62
2024/03/16 12:20:12;;;;;;;9.63;8.73;;;;;;;;;;10274238;28;20079;-61
2024/03/16 12:25:09;;;;;;;9.27;8.35;;;;;;;;;;10273358;28;20072;-61
2024/03/16 12:30:08;;;;;;;10.57;9.32;;;;;;;;;;10262516;28;20474;-62
2024/03/16 12:35:06;;;;;;;12.57;11.27;;;;;;;;;;10272400;28;20080;-61
2024/03/16 12:40:03;;;;;;;9.23;8.32;;;;;;;;;;10275416;28;20080;-62
2024/03/16 12:45:01;;;;;;;13.75;11.68;;;;;;;;;;10273699;28;20065;-62
2024/03/16 12:49:58;;;;;;;7.80;7.10;;;;;;;;;;10274763;28;20084;-62
2024/03/16 12:54:57;;;;;;;8.45;7.55;;;;;;;;;;10275229;28;20083;-62
2024/03/16 12:59:55;;;;;;;8.70;7.65;;;;;;;;;;10274470;28;20080;-62
2024/03/16 13:04:53;;;;;;;9.40;8.50;;;;;;;;;;10277669;28;20083;-61
2024/03/16 13:09:52;;;;;;;10.30;8.57;;;;;;;;;;10278304;28;20520;-62
2024/03/16 13:14:49;;;;;;;10.63;7.32;;;;;;;;;;10242129;28;20037;-61
2024/03/16 13:19:47;;;;;;;8.40;7.60;;;;;;;;;;10256311;28;20075;-61
2024/03/16 13:24:44;;;;;;;7.90;7.10;;;;;;;;;;10252758;28;20094;-62
2024/03/16 13:29:42;;;;;;;7.65;6.85;;;;;;;;;;10251212;28;20096;-62
2024/03/16 13:34:40;;;;;;;9.10;6.75;;;;;;;;;;10246790;28;20105;-61
2024/03/16 13:39:38;;;;;;;9.38;7.63;;;;;;;;;;10235373;28;20103;-62
2024/03/16 13:44:38;;;;;;;9.48;7.35;;;;;;;;;;10250120;28;20079;-63
2024/03/16 13:49:37;;;;;;;7.10;6.50;;;;;;;;;;10250269;28;20096;-62
2024/03/16 13:54:34;;;;;;;10.63;9.10;;;;;;;;;;10249961;28;20076;-62
2024/03/16 13:59:33;;;;;;;9.75;8.75;;;;;;;;;;10249633;28;20040;-62
2024/03/16 14:04:30;;;;;;;9.75;8.68;;;;;;;;;;10248790;28;20079;-62
2024/03/16 14:09:28;;;;;;;11.50;10.07;;;;;;;;;;10249548;28;20079;-61
2024/03/16 14:14:25;;;;;;;10.10;9.10;;;;;;;;;;10280279;28;20479;-61
2024/03/16 14:19:23;;;;;;;12.15;9.13;;;;;;;;;;10283015;28;20343;-62
2024/03/16 14:24:20;;;;;;;10.40;9.18;;;;;;;;;;10279311;28;20068;-62
2024/03/16 14:29:18;;;;;;;9.82;8.88;;;;;;;;;;10269081;28;20080;-62
2024/03/16 14:34:15;;;;;;;8.40;7.65;;;;;;;;;;10278029;28;20061;-62
2024/03/16 14:39:15;;;;;;;7.82;6.97;;;;;;;;;;10278060;28;20061;-62
2024/03/16 14:44:12;;;;;;;9.23;8.32;;;;;;;;;;10262019;28;20549;-61
2024/03/16 14:49:10;;;;;;;11.05;8.98;;;;;;;;;;10263633;28;20494;-61
2024/03/16 14:54:08;;;;;;;8.52;7.63;;;;;;;;;;10259705;28;20072;-61
2024/03/16 14:59:05;;;;;;;10.43;9.05;;;;;;;;;;10263006;28;20075;-61
2024/03/16 15:04:04;;;;;;;9.82;7.85;;;;;;;;;;10276903;28;20079;-62
2024/03/16 15:09:07;;;;;;;8.18;7.38;;;;;;;;;;10268482;28;20095;-61
2024/03/16 15:14:05;;;;;;;8.77;7.95;;;;;;;;;;10282754;28;20091;-62
2024/03/16 15:19:03;;;;;;;10.05;8.40;;;;;;;;;;10272526;28;20380;-62
2024/03/16 15:24:01;;;;;;;9.90;8.43;;;;;;;;;;10277392;28;20094;-62
2024/03/16 15:28:58;;;;;;;13.30;8.70;;;;;;;;;;10265289;28;20076;-62
2024/03/16 15:33:56;;;;;;;14.77;11.30;;;;;;;;;;10259727;28;20072;-62
2024/03/16 15:38:53;;;;;;;19.20;15.63;;;;;;;;;;10264732;28;20143;-62
2024/03/16 15:43:51;;;;;;;12.35;9.70;;;;;;;;;;10260876;28;20060;-61
2024/03/16 15:48:48;;;;;;;11.38;9.93;;;;;;;;;;10261611;28;20569;-61
2024/03/16 15:53:46;;;;;;;15.07;9.85;;;;;;;;;;10264727;28;20064;-62
2024/03/16 15:58:44;;;;;;;13.45;12.00;;;;;;;;;;10274308;28;20056;-63
2024/03/16 16:03:41;;;;;;;62.38;50.40;;;;;;;;;;10261797;28;20066;-62
2024/03/16 16:08:39;;;;;;;27.15;21.35;;;;;;;;;;10270169;28;20064;-62
2024/03/16 16:13:37;;;;;;;17.58;14.48;;;;;;;;;;10256220;28;20091;-62
2024/03/16 16:18:34;;;;;;;21.60;15.52;;;;;;;;;;10271229;28;20488;-61
2024/03/16 16:23:32;;;;;;;27.55;18.38;;;;;;;;;;10274363;28;20068;-62
2024/03/16 16:28:29;;;;;;;81.15;54.13;;;;;;;;;;10270685;28;20330;-61
2024/03/16 16:33:27;;;;;;;34.03;25.52;;;;;;;;;;10269664;28;20064;-61
2024/03/16 16:38:24;;;;;;;25.05;21.95;;;;;;;;;;10245987;28;20060;-62
2024/03/16 16:43:22;;;;;;;30.98;22.17;;;;;;;;;;10265408;28;20588;-62
2024/03/16 16:48:22;;;;;;;27.10;21.60;;;;;;;;;;10275728;28;20473;-62
2024/03/16 16:53:20;;;;;;;27.58;23.73;;;;;;;;;;10281942;28;20505;-62
2024/03/16 16:58:19;;;;;;;25.17;22.17;;;;;;;;;;10283586;28;20084;-62
2024/03/16 17:03:16;;;;;;;25.02;21.13;;;;;;;;;;10272321;28;20083;-62
2024/03/16 17:08:13;;;;;;;24.58;21.13;;;;;;;;;;10290274;28;20076;-63
2024/03/16 17:13:11;;;;;;;23.17;19.95;;;;;;;;;;10281476;28;20112;-63
2024/03/16 17:18:08;;;;;;;28.02;21.25;;;;;;;;;;10266746;28;20488;-63
2024/03/16 17:23:06;;;;;;;33.92;24.00;;;;;;;;;;10284018;28;20060;-63
2024/03/16 17:28:03;;;;;;;22.27;19.88;;;;;;;;;;10281435;28;20073;-62
2024/03/16 17:33:01;;;;;;;16.88;15.05;;;;;;;;;;10282753;28;20033;-63
2024/03/16 17:38:03;;;;;;;17.73;14.82;;;;;;;;;;10280926;28;20056;-63
2024/03/16 17:43:00;;;;;;;22.15;19.67;;;;;;;;;;10280423;28;20072;-63
2024/03/16 17:47:58;;;;;;;18.38;14.02;;;;;;;;;;10279974;28;20083;-63
2024/03/16 17:52:55;;;;;;;14.05;11.75;;;;;;;;;;10280025;28;20068;-63
2024/03/16 17:57:58;;;;;;;13.40;12.10;;;;;;;;;;10278297;28;20098;-63
2024/03/16 18:02:55;;;;;;;12.00;10.68;;;;;;;;;;10269984;28;20107;-60
2024/03/16 18:07:53;;;;;;;12.73;11.15;;;;;;;;;;10281891;28;20073;-61
2024/03/16 18:12:50;;;;;;;14.68;10.82;;;;;;;;;;10280362;28;20480;-62
2024/03/16 18:17:47;;;;;;;11.25;10.15;;;;;;;;;;10278959;28;20075;-62
2024/03/16 18:22:48;;;;;;;12.70;11.20;;;;;;;;;;10285797;28;20064;-63
2024/03/16 18:27:46;;;;;;;15.15;11.63;;;;;;;;;;10277748;28;20095;-63
2024/03/16 18:32:43;;;;;;;13.77;12.25;;;;;;;;;;10265031;28;20417;-64
2024/03/16 18:37:40;;;;;;;12.80;11.50;;;;;;;;;;10277546;28;20095;-63
2024/03/16 18:42:39;;;;;;;19.27;15.68;;;;;;;;;;10278551;28;20064;-63
2024/03/16 18:47:37;;;;;;;11.05;9.95;;;;;;;;;;10277649;28;20069;-62
2024/03/16 18:52:39;;;;;;;11.27;10.18;;;;;;;;;;10278642;28;20072;-62
2024/03/16 18:57:37;;;;;;;12.55;11.15;;;;;;;;;;10276505;28;20466;-62
2024/03/16 19:02:36;;;;;;;11.85;10.70;;;;;;;;;;10276972;28;20068;-62
2024/03/16 19:07:33;;;;;;;14.55;12.98;;;;;;;;;;10282273;28;20088;-62
2024/03/16 19:12:33;;;;;;;14.38;10.32;;;;;;;;;;10283945;28;20079;-62
2024/03/16 19:17:30;;;;;;;13.20;11.85;;;;;;;;;;10282974;28;20518;-61
2024/03/16 19:22:29;;;;;;;12.38;10.77;;;;;;;;;;10289302;28;20068;-62
2024/03/16 19:27:26;;;;;;;12.23;9.90;;;;;;;;;;10284124;28;20102;-62
2024/03/16 19:32:24;;;;;;;11.70;9.57;;;;;;;;;;10274395;28;20076;-62
2024/03/16 19:37:21;;;;;;;13.57;10.40;;;;;;;;;;10273836;28;20146;-61
2024/03/16 19:42:21;;;;;;;11.80;10.27;;;;;;;;;;10283731;28;20067;-62
2024/03/16 19:47:18;;;;;;;9.52;8.65;;;;;;;;;;10273632;28;20510;-62
2024/03/16 19:52:16;;;;;;;9.82;8.30;;;;;;;;;;10262075;28;20087;-62
2024/03/16 19:57:13;;;;;;;12.15;9.30;;;;;;;;;;10275824;28;20083;-62
2024/03/16 20:02:13;;;;;;;9.73;8.73;;;;;;;;;;10281344;28;20060;-61
2024/03/16 20:07:10;;;;;;;11.27;10.07;;;;;;;;;;10292412;28;20076;-60
2024/03/16 20:12:09;;;;;;;10.40;9.30;;;;;;;;;;10281140;28;20506;-60
2024/03/16 20:17:10;;;;;;;9.38;8.45;;;;;;;;;;10279540;28;20063;-62
2024/03/16 20:22:12;;;;;;;9.57;8.57;;;;;;;;;;10266262;28;20083;-63
2024/03/16 20:27:10;;;;;;;11.00;9.88;;;;;;;;;;10280489;28;20068;-63
2024/03/16 20:32:07;;;;;;;9.73;8.73;;;;;;;;;;10274562;28;20064;-62
2024/03/16 20:37:05;;;;;;;10.90;9.40;;;;;;;;;;10271720;28;20510;-62
2024/03/16 20:42:04;;;;;;;9.70;8.60;;;;;;;;;;10274222;28;20079;-62
2024/03/16 20:47:02;;;;;;;10.32;9.18;;;;;;;;;;10275198;28;20069;-60
2024/03/16 20:51:59;;;;;;;10.25;9.05;;;;;;;;;;10272666;28;20454;-60
2024/03/16 20:56:56;;;;;;;10.50;9.30;;;;;;;;;;10275687;28;20462;-62
2024/03/16 21:01:55;;;;;;;11.88;9.25;;;;;;;;;;10282557;28;20072;-60
2024/03/16 21:06:53;;;;;;;11.25;8.77;;;;;;;;;;10281382;28;20485;-61
2024/03/16 21:11:50;;;;;;;13.20;9.73;;;;;;;;;;10270515;28;20149;-61
2024/03/16 21:16:51;;;;;;;9.63;8.68;;;;;;;;;;10270504;28;20068;-61
2024/03/16 21:21:50;;;;;;;11.52;10.07;;;;;;;;;;10271836;28;20068;-61
2024/03/16 21:26:48;;;;;;;10.43;9.23;;;;;;;;;;10276785;28;21050;-61
2024/03/16 21:31:47;;;;;;;11.00;9.90;;;;;;;;;;10288177;28;20512;-62
2024/03/16 21:36:45;;;;;;;14.85;11.82;;;;;;;;;;10280042;28;20072;-62
2024/03/16 21:41:44;;;;;;;10.68;9.02;;;;;;;;;;10272347;28;20073;-61
2024/03/16 21:46:42;;;;;;;13.93;10.10;;;;;;;;;;10280768;28;20069;-61
2024/03/16 21:51:41;;;;;;;10.38;8.63;;;;;;;;;;10278449;28;20072;-61
2024/03/16 21:56:38;;;;;;;11.25;9.23;;;;;;;;;;10282016;28;20076;-61
2024/03/16 22:01:37;;;;;;;11.63;9.73;;;;;;;;;;10280015;28;20071;-61
2024/03/16 22:06:34;;;;;;;9.80;8.70;;;;;;;;;;10281585;28;20076;-61
2024/03/16 22:11:32;;;;;;;10.23;8.90;;;;;;;;;;10272059;28;20490;-61
2024/03/16 22:16:29;;;;;;;11.35;9.95;;;;;;;;;;10247934;28;20069;-62
2024/03/16 22:21:28;;;;;;;9.55;8.65;;;;;;;;;;10251995;28;20175;-62
2024/03/16 22:26:25;;;;;;;12.40;10.38;;;;;;;;;;10263715;28;20068;-62
2024/03/16 22:31:23;;;;;;;11.55;9.32;;;;;;;;;;10252084;28;20060;-62
2024/03/16 22:36:21;;;;;;;10.73;9.30;;;;;;;;;;10252541;28;20081;-62
2024/03/16 22:41:20;;;;;;;12.02;10.25;;;;;;;;;;10243746;28;20627;-62
2024/03/16 22:46:17;;;;;;;11.52;10.00;;;;;;;;;;10248411;28;20296;-62
2024/03/16 22:51:16;;;;;;;16.00;10.25;;;;;;;;;;10248992;28;20103;-61
2024/03/16 22:56:13;;;;;;;14.80;10.25;;;;;;;;;;10249273;28;20076;-62
2024/03/16 23:01:12;;;;;;;12.32;9.85;;;;;;;;;;10242591;28;20518;-61
2024/03/16 23:06:11;;;;;;;12.43;10.30;;;;;;;;;;10263869;28;20080;-61
2024/03/16 23:11:08;;;;;;;11.75;10.13;;;;;;;;;;10250409;28;20085;-61
2024/03/16 23:16:07;;;;;;;12.23;10.88;;;;;;;;;;10284486;28;20041;-61
2024/03/16 23:21:07;;;;;;;14.25;10.35;;;;;;;;;;10283739;28;20075;-61
2024/03/16 23:26:05;;;;;;;13.18;10.80;;;;;;;;;;10278251;28;20072;-61
2024/03/16 23:31:03;;;;;;;12.60;10.65;;;;;;;;;;10278481;28;20076;-61
2024/03/16 23:36:01;;;;;;;11.32;9.80;;;;;;;;;;10278530;28;20473;-62
2024/03/16 23:41:03;;;;;;;12.73;9.93;;;;;;;;;;10272573;28;20068;-62
2024/03/16 23:46:01;;;;;;;14.50;12.45;;;;;;;;;;10282185;28;20068;-62
2024/03/16 23:50:59;;;;;;;17.58;13.40;;;;;;;;;;10276573;28;20934;-62
2024/03/16 23:55:56;;;;;;;18.08;13.68;;;;;;;;;;10277390;28;20072;-62
